Time;durP1;ratioP1;P1;durP2;ratioP2;P2;SDS_P1;SDS_P2;PMS_P1;PMS_P2;Temp;Humidity;BMP_temperature;BMP_pressure;BME280_temperature;BME280_humidity;BME280_pressure;Samples;Min_cycle;Max_cycle;Signal;HPM_P1;HPM_P2
2022/10/12 00:00:29;;;;;;;;;;;10.20;99.90;;;;;;5040543;28;20261;-70
2022/10/12 00:02:55;;;;;;;;;;;10.20;99.90;;;;;;5043761;28;19905;-68
2022/10/12 00:05:20;;;;;;;;;;;10.20;99.90;;;;;;5042671;28;20285;-68
2022/10/12 00:07:45;;;;;;;;;;;10.20;99.90;;;;;;5036979;28;19946;-68
2022/10/12 00:10:11;;;;;;;;;;;10.20;99.90;;;;;;5059504;28;19912;-68
2022/10/12 00:12:36;;;;;;;;;;;10.20;99.90;;;;;;5042674;28;20001;-69
2022/10/12 00:15:02;;;;;;;;;;;10.20;99.90;;;;;;5044096;28;19909;-69
2022/10/12 00:17:29;;;;;;;;;;;10.20;99.90;;;;;;5044245;28;19920;-68
2022/10/12 00:19:54;;;;;;;;;;;10.10;99.90;;;;;;5042703;28;19928;-70
2022/10/12 00:22:20;;;;;;;;;;;10.10;99.90;;;;;;5044733;28;19940;-70
2022/10/12 00:24:45;;;;;;;;;;;10.10;99.90;;;;;;5043215;28;19963;-69
2022/10/12 00:27:11;;;;;;;;;;;10.10;99.90;;;;;;5043151;28;19955;-70
2022/10/12 00:29:36;;;;;;;;;;;10.00;99.90;;;;;;5044574;28;19974;-69
2022/10/12 00:32:02;;;;;;;;;;;10.00;99.90;;;;;;5042579;28;19913;-67
2022/10/12 00:34:27;;;;;;;;;;;10.00;99.90;;;;;;5043249;28;19911;-70
2022/10/12 00:36:54;;;;;;;;;;;10.00;99.90;;;;;;5044654;28;19967;-70
2022/10/12 00:39:20;;;;;;;;;;;10.10;99.90;;;;;;5038212;28;20007;-68
2022/10/12 00:41:45;;;;;;;;;;;10.10;99.90;;;;;;5043164;28;20003;-69
2022/10/12 00:44:29;;;;;;;;;;;10.10;99.90;;;;;;5041293;28;19909;-70
2022/10/12 00:46:56;;;;;;;;;;;10.10;99.90;;;;;;5041071;28;19920;-69
2022/10/12 00:49:23;;;;;;;;;;;10.20;99.90;;;;;;5043710;28;20385;-68
2022/10/12 00:51:54;;;;;;;;;;;10.10;99.90;;;;;;5043254;28;19912;-69
2022/10/12 00:54:22;;;;;;;;;;;10.10;99.90;;;;;;5039663;28;19911;-69
2022/10/12 00:56:50;;;;;;;;;;;10.10;99.90;;;;;;5042594;28;19917;-67
2022/10/12 00:59:20;;;;;;;;;;;10.10;99.90;;;;;;5043994;28;19919;-68
2022/10/12 01:01:45;;;;;;;;;;;10.20;99.90;;;;;;5036908;28;19909;-68
2022/10/12 01:04:11;;;;;;;;;;;10.10;99.90;;;;;;5042484;28;19909;-68
2022/10/12 01:06:37;;;;;;;;;;;10.10;99.90;;;;;;5040333;28;20679;-69
2022/10/12 01:09:02;;;;;;;;;;;10.20;99.90;;;;;;5041339;28;19912;-69
2022/10/12 01:11:28;;;;;;;;;;;10.10;99.90;;;;;;5042686;28;20364;-69
2022/10/12 01:13:54;;;;;;;;;;;10.10;99.90;;;;;;5043974;28;19913;-68
2022/10/12 01:16:31;;;;;;;;;;;10.10;99.90;;;;;;5047649;28;20010;-69
2022/10/12 01:19:04;;;;;;;;;;;10.10;99.90;;;;;;5053412;28;20307;-69
2022/10/12 01:21:30;;;;;;;;;;;10.10;99.90;;;;;;5053687;28;19905;-69
2022/10/12 01:24:04;;;;;;;;;;;10.10;99.90;;;;;;5051444;28;19905;-68
2022/10/12 01:26:32;;;;;;;;;;;10.10;99.90;;;;;;5033694;28;20282;-68
2022/10/12 01:29:18;;;;;;;;;;;10.10;99.90;;;;;;5032301;28;19919;-69
2022/10/12 01:31:57;;;;;;;;;;;10.10;99.90;;;;;;5012471;28;19911;-69
2022/10/12 01:34:30;;;;;;;;;;;10.10;99.90;;;;;;5033771;28;19909;-69
2022/10/12 01:37:10;;;;;;;;;;;10.10;99.90;;;;;;5032771;28;19909;-69
2022/10/12 01:39:45;;;;;;;;;;;10.00;99.90;;;;;;5033457;28;20012;-69
2022/10/12 01:42:14;;;;;;;;;;;10.00;99.90;;;;;;5033429;28;19909;-69
2022/10/12 01:44:40;;;;;;;;;;;10.00;99.90;;;;;;5033514;28;19905;-68
2022/10/12 01:47:05;;;;;;;;;;;9.90;99.90;;;;;;5033432;28;19905;-68
2022/10/12 01:49:32;;;;;;;;;;;9.90;99.90;;;;;;5033689;28;19947;-68
2022/10/12 01:52:19;;;;;;;;;;;9.80;99.90;;;;;;5033265;28;19920;-69
2022/10/12 01:55:03;;;;;;;;;;;9.80;99.90;;;;;;5033129;28;19936;-68
2022/10/12 01:57:38;;;;;;;;;;;9.80;99.90;;;;;;5033039;28;19905;-68
2022/10/12 02:00:06;;;;;;;;;;;9.70;99.90;;;;;;5032855;28;19905;-69
2022/10/12 02:02:40;;;;;;;;;;;9.60;99.90;;;;;;5032806;28;19944;-68
2022/10/12 02:05:05;;;;;;;;;;;9.60;99.90;;;;;;5032875;28;19916;-69
2022/10/12 02:07:40;;;;;;;;;;;9.50;99.90;;;;;;5033106;28;19950;-69
2022/10/12 02:10:07;;;;;;;;;;;9.50;99.90;;;;;;5033386;28;19958;-68
2022/10/12 02:12:33;;;;;;;;;;;9.40;99.90;;;;;;5032935;28;20370;-69
2022/10/12 02:15:01;;;;;;;;;;;9.40;99.90;;;;;;5032767;28;19934;-69
2022/10/12 02:17:28;;;;;;;;;;;9.30;99.90;;;;;;5032840;28;19909;-69
2022/10/12 02:20:00;;;;;;;;;;;9.30;99.90;;;;;;5031407;28;19905;-69
2022/10/12 02:22:29;;;;;;;;;;;9.30;99.90;;;;;;5033052;28;19905;-69
2022/10/12 02:24:55;;;;;;;;;;;9.30;99.90;;;;;;5032862;28;19905;-68
2022/10/12 02:27:22;;;;;;;;;;;9.20;99.90;;;;;;5032425;28;19909;-69
2022/10/12 02:29:48;;;;;;;;;;;9.20;99.90;;;;;;5032497;28;19959;-69
2022/10/12 02:32:20;;;;;;;;;;;9.20;99.90;;;;;;5032703;28;20354;-68
2022/10/12 02:35:15;;;;;;;;;;;9.10;99.90;;;;;;5031314;28;19916;-69
2022/10/12 02:37:43;;;;;;;;;;;9.10;99.90;;;;;;5023528;28;19958;-69
2022/10/12 02:40:18;;;;;;;;;;;9.00;99.90;;;;;;5032075;28;20587;-68
2022/10/12 02:42:48;;;;;;;;;;;9.00;99.90;;;;;;5033242;28;19909;-68
2022/10/12 02:45:14;;;;;;;;;;;8.90;99.90;;;;;;5032625;28;19909;-68
2022/10/12 02:47:41;;;;;;;;;;;8.90;99.90;;;;;;5031136;28;19951;-68
2022/10/12 02:50:08;;;;;;;;;;;8.80;99.90;;;;;;5032474;28;19960;-68
2022/10/12 02:52:33;;;;;;;;;;;8.80;99.90;;;;;;5032236;28;19909;-68
2022/10/12 02:54:59;;;;;;;;;;;8.70;99.90;;;;;;5032373;28;19913;-68
2022/10/12 02:57:25;;;;;;;;;;;8.70;99.90;;;;;;5032463;28;19905;-68
2022/10/12 02:59:51;;;;;;;;;;;8.70;99.90;;;;;;5031123;28;19912;-68
2022/10/12 03:02:16;;;;;;;;;;;8.60;99.90;;;;;;5032373;28;20363;-69
2022/10/12 03:04:42;;;;;;;;;;;8.60;99.90;;;;;;5032639;28;19904;-69
2022/10/12 03:07:07;;;;;;;;;;;8.50;99.90;;;;;;5032391;28;20351;-69
2022/10/12 03:09:33;;;;;;;;;;;8.50;99.90;;;;;;5032101;28;19916;-69
2022/10/12 03:11:58;;;;;;;;;;;8.50;99.90;;;;;;5032195;28;19925;-69
2022/10/12 03:14:25;;;;;;;;;;;8.40;99.90;;;;;;5032323;28;20379;-69
2022/10/12 03:16:51;;;;;;;;;;;8.40;99.90;;;;;;5032229;28;19920;-68
2022/10/12 03:19:16;;;;;;;;;;;8.30;99.90;;;;;;5031937;28;20085;-68
2022/10/12 03:21:42;;;;;;;;;;;8.30;99.90;;;;;;5032283;28;20415;-69
2022/10/12 03:24:07;;;;;;;;;;;8.20;99.90;;;;;;5032235;28;19913;-68
2022/10/12 03:26:33;;;;;;;;;;;8.20;99.90;;;;;;5030895;28;19975;-69
2022/10/12 03:28:58;;;;;;;;;;;8.20;99.90;;;;;;5032265;28;19923;-68
2022/10/12 03:31:24;;;;;;;;;;;8.10;99.90;;;;;;5033976;28;20366;-68
2022/10/12 03:33:49;;;;;;;;;;;8.10;99.90;;;;;;5036092;28;20003;-68
2022/10/12 03:36:15;;;;;;;;;;;8.00;99.90;;;;;;5033483;28;19913;-68
2022/10/12 03:38:40;;;;;;;;;;;8.10;99.90;;;;;;5035336;28;20355;-68
2022/10/12 03:41:06;;;;;;;;;;;8.00;99.90;;;;;;5035587;28;19912;-68
2022/10/12 03:43:31;;;;;;;;;;;8.00;99.90;;;;;;5035570;28;20346;-69
2022/10/12 03:45:57;;;;;;;;;;;8.00;99.90;;;;;;5035522;28;19911;-68
2022/10/12 03:48:22;;;;;;;;;;;8.00;99.90;;;;;;5035696;28;19980;-68
2022/10/12 03:50:48;;;;;;;;;;;8.00;99.90;;;;;;5035849;28;19924;-68
2022/10/12 03:53:14;;;;;;;;;;;8.00;99.90;;;;;;5035556;28;19909;-68
2022/10/12 03:55:40;;;;;;;;;;;7.90;99.90;;;;;;5035658;28;20336;-68
2022/10/12 03:58:05;;;;;;;;;;;7.90;99.90;;;;;;5035461;28;19905;-68
2022/10/12 04:00:31;;;;;;;;;;;7.90;99.90;;;;;;5035499;28;19905;-68
2022/10/12 04:02:56;;;;;;;;;;;7.90;99.90;;;;;;5035578;28;19912;-68
2022/10/12 04:05:22;;;;;;;;;;;7.90;99.90;;;;;;5033817;28;19955;-68
2022/10/12 04:07:47;;;;;;;;;;;7.90;99.90;;;;;;5035082;28;19932;-67
2022/10/12 04:10:13;;;;;;;;;;;7.80;99.90;;;;;;5035262;28;20347;-70
2022/10/12 04:12:38;;;;;;;;;;;7.80;99.90;;;;;;5035137;28;19924;-68
2022/10/12 04:15:04;;;;;;;;;;;7.80;99.90;;;;;;5035334;28;19956;-69
2022/10/12 04:17:29;;;;;;;;;;;7.80;99.90;;;;;;5035173;28;20339;-68
2022/10/12 04:19:55;;;;;;;;;;;7.80;99.90;;;;;;5035350;28;20389;-68
2022/10/12 04:22:22;;;;;;;;;;;7.70;99.90;;;;;;5034807;28;19905;-69
2022/10/12 04:24:48;;;;;;;;;;;7.70;99.90;;;;;;5034582;28;20362;-69
2022/10/12 04:27:13;;;;;;;;;;;7.70;99.90;;;;;;5034748;28;19905;-68
2022/10/12 04:29:39;;;;;;;;;;;7.70;99.90;;;;;;5034727;28;20365;-68
2022/10/12 04:32:04;;;;;;;;;;;7.70;99.90;;;;;;5034877;28;19995;-68
2022/10/12 04:34:30;;;;;;;;;;;7.70;99.90;;;;;;5034932;28;19915;-68
2022/10/12 04:36:56;;;;;;;;;;;7.70;99.90;;;;;;5034846;28;19913;-67
2022/10/12 04:39:21;;;;;;;;;;;7.70;99.90;;;;;;5034449;28;19991;-67
2022/10/12 04:41:46;;;;;;;;;;;7.70;99.90;;;;;;5033663;28;19971;-68
2022/10/12 04:44:12;;;;;;;;;;;7.70;99.90;;;;;;5034353;28;20412;-68
2022/10/12 04:46:37;;;;;;;;;;;7.70;99.90;;;;;;5034692;28;19916;-67
2022/10/12 04:49:03;;;;;;;;;;;7.70;99.90;;;;;;5035029;28;19905;-68
2022/10/12 04:51:28;;;;;;;;;;;7.80;99.90;;;;;;5034074;28;19911;-69
2022/10/12 04:53:54;;;;;;;;;;;7.80;99.90;;;;;;5034526;28;19913;-68
2022/10/12 04:56:19;;;;;;;;;;;7.90;99.90;;;;;;5034064;28;19913;-68
2022/10/12 04:58:45;;;;;;;;;;;7.90;99.90;;;;;;5034807;28;19916;-68
2022/10/12 05:01:10;;;;;;;;;;;8.00;99.90;;;;;;5033981;28;20003;-68
2022/10/12 05:03:36;;;;;;;;;;;8.10;99.90;;;;;;5033293;28;19909;-69
2022/10/12 05:06:01;;;;;;;;;;;8.10;99.90;;;;;;5034550;28;20266;-69
2022/10/12 05:08:26;;;;;;;;;;;8.10;99.90;;;;;;5034322;28;19997;-69
2022/10/12 05:10:52;;;;;;;;;;;8.20;99.90;;;;;;5034264;28;19966;-69
2022/10/12 05:13:18;;;;;;;;;;;8.20;99.90;;;;;;5034465;28;20376;-69
2022/10/12 05:15:43;;;;;;;;;;;8.20;99.90;;;;;;5034230;28;19913;-68
2022/10/12 05:18:09;;;;;;;;;;;8.30;99.90;;;;;;5034277;28;19909;-69
2022/10/12 05:20:36;;;;;;;;;;;8.40;99.90;;;;;;5034157;28;19905;-69
2022/10/12 05:23:01;;;;;;;;;;;8.40;99.90;;;;;;5034238;28;19916;-68
2022/10/12 05:25:28;;;;;;;;;;;8.40;99.90;;;;;;5034393;28;19905;-68
2022/10/12 05:27:54;;;;;;;;;;;8.40;99.90;;;;;;5033853;28;19928;-69
2022/10/12 05:30:20;;;;;;;;;;;8.40;99.90;;;;;;5033975;28;19974;-69
2022/10/12 05:32:45;;;;;;;;;;;8.40;99.90;;;;;;5034215;28;20430;-69
2022/10/12 05:35:10;;;;;;;;;;;8.40;99.90;;;;;;5033985;28;20027;-69
2022/10/12 05:37:36;;;;;;;;;;;8.40;99.90;;;;;;5032538;28;19912;-69
2022/10/12 05:40:02;;;;;;;;;;;8.30;99.90;;;;;;5034073;28;19958;-69
2022/10/12 05:42:27;;;;;;;;;;;8.30;99.90;;;;;;5033796;28;19905;-69
2022/10/12 05:44:53;;;;;;;;;;;8.30;99.90;;;;;;5033776;28;19927;-69
2022/10/12 05:47:18;;;;;;;;;;;8.30;99.90;;;;;;5033571;28;19912;-69
2022/10/12 05:49:44;;;;;;;;;;;8.30;99.90;;;;;;5033994;28;20331;-69
2022/10/12 05:52:09;;;;;;;;;;;8.30;99.90;;;;;;5033729;28;20004;-69
2022/10/12 05:54:35;;;;;;;;;;;8.30;99.90;;;;;;5031954;28;19912;-67
2022/10/12 05:57:00;;;;;;;;;;;8.30;99.90;;;;;;5033832;28;19982;-67
2022/10/12 05:59:26;;;;;;;;;;;8.30;99.90;;;;;;5033608;28;19915;-67
2022/10/12 06:01:52;;;;;;;;;;;8.30;99.90;;;;;;5033680;28;20343;-68
2022/10/12 06:04:17;;;;;;;;;;;8.30;99.90;;;;;;5033532;28;19974;-68
2022/10/12 06:06:43;;;;;;;;;;;8.30;99.90;;;;;;5033061;28;19905;-68
2022/10/12 06:09:08;;;;;;;;;;;8.40;99.90;;;;;;5033283;28;19996;-67
2022/10/12 06:11:34;;;;;;;;;;;8.40;99.90;;;;;;5032849;28;19917;-67
2022/10/12 06:13:59;;;;;;;;;;;8.40;99.90;;;;;;5031730;28;19905;-68
2022/10/12 06:16:28;;;;;;;;;;;8.40;99.90;;;;;;5033009;28;19913;-68
2022/10/12 06:18:54;;;;;;;;;;;8.40;99.90;;;;;;5030489;28;19905;-68
2022/10/12 06:21:19;;;;;;;;;;;8.40;99.90;;;;;;5030626;28;19955;-68
2022/10/12 06:23:45;;;;;;;;;;;8.40;99.90;;;;;;5031545;28;19905;-68
2022/10/12 06:26:10;;;;;;;;;;;8.40;99.90;;;;;;5032105;28;19905;-68
2022/10/12 06:28:35;;;;;;;;;;;8.50;99.90;;;;;;5032488;28;19912;-69
2022/10/12 06:31:01;;;;;;;;;;;8.50;99.90;;;;;;5032953;28;19912;-68
2022/10/12 06:33:27;;;;;;;;;;;8.60;99.90;;;;;;5033007;28;19936;-68
2022/10/12 06:35:53;;;;;;;;;;;8.60;99.90;;;;;;5032515;28;20294;-68
2022/10/12 06:38:18;;;;;;;;;;;8.70;99.90;;;;;;5032824;28;19912;-68
2022/10/12 06:40:44;;;;;;;;;;;8.80;99.90;;;;;;5032805;28;19905;-68
2022/10/12 06:43:09;;;;;;;;;;;8.80;99.90;;;;;;5032468;28;19905;-69
2022/10/12 06:45:35;;;;;;;;;;;8.90;99.90;;;;;;5032680;28;20417;-68
2022/10/12 06:48:00;;;;;;;;;;;9.00;99.90;;;;;;5032624;28;20325;-68
2022/10/12 06:50:26;;;;;;;;;;;9.10;99.90;;;;;;5032665;28;19913;-68
2022/10/12 06:52:52;;;;;;;;;;;9.20;99.90;;;;;;5032676;28;20028;-68
2022/10/12 06:55:18;;;;;;;;;;;9.30;99.90;;;;;;5032316;28;19917;-68
2022/10/12 06:57:43;;;;;;;;;;;9.40;99.90;;;;;;5032525;28;20393;-68
2022/10/12 07:00:09;;;;;;;;;;;9.50;99.90;;;;;;5032464;28;19905;-68
2022/10/12 07:02:35;;;;;;;;;;;9.60;99.90;;;;;;5032801;28;19940;-69
2022/10/12 07:05:00;;;;;;;;;;;9.70;99.90;;;;;;5032889;28;19916;-68
2022/10/12 07:07:29;;;;;;;;;;;9.70;99.90;;;;;;5036585;28;19916;-67
2022/10/12 07:09:55;;;;;;;;;;;9.80;99.90;;;;;;5036626;28;19905;-68
2022/10/12 07:12:20;;;;;;;;;;;9.90;99.90;;;;;;5036299;28;19924;-68
2022/10/12 07:14:46;;;;;;;;;;;9.90;99.90;;;;;;5035099;28;19908;-68
2022/10/12 07:17:11;;;;;;;;;;;10.00;99.90;;;;;;5034897;28;19913;-68
2022/10/12 07:19:37;;;;;;;;;;;10.10;99.90;;;;;;5036410;28;19909;-69
2022/10/12 07:22:02;;;;;;;;;;;10.10;99.90;;;;;;5036222;28;21025;-68
2022/10/12 07:24:35;;;;;;;;;;;10.20;99.90;;;;;;5035980;28;19919;-68
2022/10/12 07:27:04;;;;;;;;;;;10.30;99.90;;;;;;5036349;28;19994;-68
2022/10/12 07:29:30;;;;;;;;;;;10.40;99.90;;;;;;5036366;28;19905;-68
2022/10/12 07:31:56;;;;;;;;;;;10.50;99.90;;;;;;5036389;28;19913;-68
2022/10/12 07:34:22;;;;;;;;;;;10.60;99.90;;;;;;5035636;28;19913;-68
2022/10/12 07:36:47;;;;;;;;;;;10.70;99.90;;;;;;5034808;28;19974;-70
2022/10/12 07:39:13;;;;;;;;;;;10.70;99.90;;;;;;5035708;28;19909;-69
2022/10/12 07:41:38;;;;;;;;;;;10.90;99.90;;;;;;5036170;28;20258;-68
2022/10/12 07:44:04;;;;;;;;;;;11.00;99.90;;;;;;5036035;28;19963;-68
2022/10/12 07:46:29;;;;;;;;;;;11.20;99.90;;;;;;5035837;28;19905;-69
2022/10/12 07:48:56;;;;;;;;;;;11.30;99.90;;;;;;5035768;28;19905;-68
2022/10/12 07:51:21;;;;;;;;;;;11.50;99.90;;;;;;5036201;28;20000;-67
2022/10/12 07:53:47;;;;;;;;;;;11.60;99.90;;;;;;5035806;28;20007;-69
2022/10/12 07:56:15;;;;;;;;;;;11.60;99.90;;;;;;5035569;28;19939;-68
2022/10/12 07:58:42;;;;;;;;;;;11.60;99.90;;;;;;5035394;28;19909;-68
2022/10/12 08:01:08;;;;;;;;;;;11.60;99.90;;;;;;5034966;28;20432;-68
2022/10/12 08:03:34;;;;;;;;;;;11.70;99.90;;;;;;5034913;28;19920;-69
2022/10/12 08:06:06;;;;;;;;;;;11.80;99.90;;;;;;5034410;28;19908;-68
2022/10/12 08:08:32;;;;;;;;;;;11.90;99.90;;;;;;5034814;28;19909;-69
2022/10/12 08:10:59;;;;;;;;;;;12.00;99.90;;;;;;5035023;28;19908;-69
2022/10/12 08:13:25;;;;;;;;;;;12.10;99.90;;;;;;5034780;28;20359;-69
2022/10/12 08:15:50;;;;;;;;;;;12.50;99.90;;;;;;5035244;28;19913;-69
2022/10/12 08:18:16;;;;;;;;;;;12.80;99.90;;;;;;5034838;28;20346;-69
2022/10/12 08:20:41;;;;;;;;;;;13.20;99.90;;;;;;5035229;28;19905;-67
2022/10/12 08:23:07;;;;;;;;;;;13.80;99.90;;;;;;5034777;28;20007;-68
2022/10/12 08:25:33;;;;;;;;;;;14.60;99.90;;;;;;5034537;28;20362;-69
2022/10/12 08:27:59;;;;;;;;;;;15.50;99.90;;;;;;5035322;28;20363;-69
2022/10/12 08:30:25;;;;;;;;;;;16.20;99.90;;;;;;5034311;28;19920;-68
2022/10/12 08:32:51;;;;;;;;;;;16.90;99.90;;;;;;5034738;28;20358;-68
2022/10/12 08:35:17;;;;;;;;;;;17.60;99.90;;;;;;5015171;28;19920;-68
2022/10/12 08:37:42;;;;;;;;;;;18.20;99.40;;;;;;5017784;28;20295;-68
2022/10/12 08:40:14;;;;;;;;;;;18.60;97.50;;;;;;5034090;28;19928;-68
2022/10/12 08:43:06;;;;;;;;;;;19.00;96.70;;;;;;5034553;28;19944;-70
2022/10/12 08:45:38;;;;;;;;;;;19.60;95.70;;;;;;5018660;28;19909;-68
2022/10/12 08:48:11;;;;;;;;;;;20.20;94.80;;;;;;5034479;28;19913;-68
2022/10/12 08:50:39;;;;;;;;;;;20.70;93.70;;;;;;5034074;28;19955;-68
2022/10/12 08:53:14;;;;;;;;;;;21.00;92.90;;;;;;5034483;28;19917;-68
2022/10/12 08:55:44;;;;;;;;;;;21.40;92.30;;;;;;5034138;28;19924;-68
2022/10/12 08:58:20;;;;;;;;;;;21.80;92.20;;;;;;5034757;28;19913;-68
2022/10/12 09:01:06;;;;;;;;;;;22.40;91.00;;;;;;5033498;28;19948;-68
2022/10/12 09:03:52;;;;;;;;;;;22.90;90.30;;;;;;5025881;28;20256;-68
2022/10/12 09:06:19;;;;;;;;;;;23.10;88.00;;;;;;5034137;28;19909;-68
2022/10/12 09:08:44;;;;;;;;;;;23.40;88.10;;;;;;5033677;28;19924;-68
2022/10/12 09:11:16;;;;;;;;;;;23.50;87.20;;;;;;5033460;28;19909;-68
2022/10/12 09:13:45;;;;;;;;;;;23.60;86.00;;;;;;5024766;28;19923;-68
2022/10/12 09:16:18;;;;;;;;;;;23.80;85.80;;;;;;5033475;28;19925;-68
2022/10/12 09:18:45;;;;;;;;;;;23.90;84.80;;;;;;5027431;28;19913;-69
2022/10/12 09:21:17;;;;;;;;;;;24.10;84.90;;;;;;5033065;28;19956;-69
2022/10/12 09:23:43;;;;;;;;;;;24.50;84.20;;;;;;5034072;28;20315;-69
2022/10/12 09:26:12;;;;;;;;;;;24.90;83.10;;;;;;5034186;28;19951;-68
2022/10/12 09:28:42;;;;;;;;;;;25.40;81.70;;;;;;5033346;28;20340;-68
2022/10/12 09:31:26;;;;;;;;;;;25.80;80.50;;;;;;5034023;28;19932;-68
2022/10/12 09:33:56;;;;;;;;;;;26.00;79.70;;;;;;5033501;28;19905;-68
2022/10/12 09:36:23;;;;;;;;;;;26.20;78.20;;;;;;5021120;28;19917;-69
2022/10/12 09:38:49;;;;;;;;;;;26.10;78.00;;;;;;5033881;28;19916;-69
2022/10/12 09:41:44;;;;;;;;;;;26.30;78.50;;;;;;5033735;28;19909;-69
2022/10/12 09:44:15;;;;;;;;;;;26.50;77.80;;;;;;5009266;28;19963;-69
2022/10/12 09:46:41;;;;;;;;;;;26.70;76.20;;;;;;5014049;28;19905;-69
2022/10/12 09:49:07;;;;;;;;;;;26.80;76.40;;;;;;5014369;28;20254;-69
2022/10/12 09:51:32;;;;;;;;;;;27.20;75.90;;;;;;5014014;28;20412;-69
2022/10/12 09:54:02;;;;;;;;;;;27.40;74.60;;;;;;5015972;28;19905;-69
2022/10/12 09:56:29;;;;;;;;;;;27.60;75.40;;;;;;5033327;28;20367;-69
2022/10/12 09:58:56;;;;;;;;;;;27.90;73.50;;;;;;5033285;28;19905;-68
2022/10/12 10:01:28;;;;;;;;;;;27.70;73.00;;;;;;5032822;28;19912;-68
2022/10/12 10:04:14;;;;;;;;;;;27.20;73.30;;;;;;5032999;28;20584;-69
2022/10/12 10:06:41;;;;;;;;;;;27.00;74.10;;;;;;5030455;28;19913;-68
2022/10/12 10:09:24;;;;;;;;;;;27.00;73.50;;;;;;5033214;28;20262;-68
2022/10/12 10:11:50;;;;;;;;;;;27.10;73.10;;;;;;5032787;28;19920;-70
2022/10/12 10:14:15;;;;;;;;;;;27.30;71.90;;;;;;5032958;28;19911;-68
2022/10/12 10:16:48;;;;;;;;;;;27.50;72.90;;;;;;5033226;28;20386;-68
2022/10/12 10:19:17;;;;;;;;;;;27.40;72.30;;;;;;5033095;28;19909;-68
2022/10/12 10:21:43;;;;;;;;;;;27.00;72.20;;;;;;5032891;28;19972;-68
2022/10/12 10:24:29;;;;;;;;;;;26.80;72.80;;;;;;5033204;28;20413;-69
2022/10/12 10:26:57;;;;;;;;;;;26.90;71.70;;;;;;5032628;28;19913;-68
2022/10/12 10:29:28;;;;;;;;;;;27.20;72.10;;;;;;5032888;28;19905;-68
2022/10/12 10:32:12;;;;;;;;;;;27.50;72.00;;;;;;5033072;28;19905;-68
2022/10/12 10:34:40;;;;;;;;;;;27.60;71.20;;;;;;5032547;28;19905;-68
2022/10/12 10:37:06;;;;;;;;;;;27.60;70.10;;;;;;5032503;28;20074;-69
2022/10/12 10:39:38;;;;;;;;;;;27.60;71.20;;;;;;5032759;28;20373;-68
2022/10/12 10:42:11;;;;;;;;;;;27.90;70.50;;;;;;5032955;28;19905;-69
2022/10/12 10:44:37;;;;;;;;;;;27.80;69.30;;;;;;5032865;28;19905;-68
2022/10/12 10:47:07;;;;;;;;;;;27.60;70.60;;;;;;5032891;28;19912;-69
2022/10/12 10:49:44;;;;;;;;;;;27.60;68.70;;;;;;5032912;28;20329;-69
2022/10/12 10:52:28;;;;;;;;;;;27.30;69.40;;;;;;5032892;28;19992;-68
2022/10/12 10:55:08;;;;;;;;;;;27.00;70.00;;;;;;5032581;28;19905;-68
2022/10/12 10:57:35;;;;;;;;;;;27.00;69.10;;;;;;5032260;28;20363;-68
2022/10/12 11:00:04;;;;;;;;;;;27.20;69.30;;;;;;5032436;28;19909;-69
2022/10/12 11:02:29;;;;;;;;;;;27.50;69.80;;;;;;5032350;28;19944;-69
2022/10/12 11:05:15;;;;;;;;;;;27.90;68.80;;;;;;5032537;28;19944;-69
2022/10/12 11:07:49;;;;;;;;;;;28.30;68.40;;;;;;5032331;28;19909;-68
2022/10/12 11:10:29;;;;;;;;;;;28.70;67.90;;;;;;5032777;28;19909;-69
2022/10/12 11:12:58;;;;;;;;;;;28.50;65.80;;;;;;5012903;28;19939;-68
2022/10/12 11:15:45;;;;;;;;;;;27.90;67.30;;;;;;5012902;28;19913;-68
2022/10/12 11:18:14;;;;;;;;;;;27.50;67.30;;;;;;5012794;28;19980;-68
2022/10/12 11:20:45;;;;;;;;;;;27.20;66.60;;;;;;5012751;28;20382;-69
2022/10/12 11:23:14;;;;;;;;;;;26.40;67.30;;;;;;5026202;28;19916;-68
2022/10/12 11:25:45;;;;;;;;;;;25.60;68.90;;;;;;5031708;28;20329;-69
2022/10/12 11:28:14;;;;;;;;;;;25.50;69.60;;;;;;5030915;28;20000;-69
2022/10/12 11:30:42;;;;;;;;;;;25.80;70.00;;;;;;5031009;28;19909;-69
2022/10/12 11:33:11;;;;;;;;;;;26.10;69.20;;;;;;5031839;28;20347;-68
2022/10/12 11:35:39;;;;;;;;;;;26.50;68.20;;;;;;5031544;28;19913;-69
2022/10/12 11:38:06;;;;;;;;;;;26.80;67.70;;;;;;5032151;28;19909;-68
2022/10/12 11:40:41;;;;;;;;;;;26.60;67.70;;;;;;5031137;28;20383;-68
2022/10/12 11:43:11;;;;;;;;;;;26.10;68.10;;;;;;5032519;28;19909;-68
2022/10/12 11:45:39;;;;;;;;;;;25.60;69.30;;;;;;5032517;28;20270;-68
2022/10/12 11:48:09;;;;;;;;;;;25.20;68.60;;;;;;5032329;28;19966;-68
2022/10/12 11:50:36;;;;;;;;;;;24.90;69.70;;;;;;5030350;28;19995;-67
2022/10/12 11:53:04;;;;;;;;;;;24.60;70.20;;;;;;5033026;28;20007;-68
2022/10/12 11:55:36;;;;;;;;;;;24.30;70.40;;;;;;5035521;28;19912;-67
2022/10/12 11:58:10;;;;;;;;;;;24.00;71.20;;;;;;5035470;28;19956;-68
2022/10/12 12:00:52;;;;;;;;;;;23.80;71.10;;;;;;5035319;28;19909;-68
2022/10/12 12:03:36;;;;;;;;;;;23.50;72.20;;;;;;5035149;28;19916;-68
2022/10/12 12:06:21;;;;;;;;;;;23.40;73.50;;;;;;5035540;28;19944;-68
2022/10/12 12:08:46;;;;;;;;;;;23.00;73.70;;;;;;5033631;28;19953;-68
2022/10/12 12:11:26;;;;;;;;;;;22.70;73.80;;;;;;5035024;28;19947;-68
2022/10/12 12:14:11;;;;;;;;;;;22.60;75.30;;;;;;5035442;28;20420;-70
2022/10/12 12:16:41;;;;;;;;;;;22.50;74.30;;;;;;5027841;28;20345;-69
2022/10/12 12:19:09;;;;;;;;;;;22.50;75.70;;;;;;5035252;28;19995;-68
2022/10/12 12:21:53;;;;;;;;;;;22.40;76.10;;;;;;5035224;28;20003;-69
2022/10/12 12:24:19;;;;;;;;;;;22.20;77.10;;;;;;5034898;28;19999;-67
2022/10/12 12:26:46;;;;;;;;;;;22.00;76.70;;;;;;5033640;28;19916;-69
2022/10/12 12:29:18;;;;;;;;;;;21.90;78.10;;;;;;5034613;28;19909;-69
2022/10/12 12:31:52;;;;;;;;;;;21.70;78.60;;;;;;5026584;28;19931;-69
2022/10/12 12:34:17;;;;;;;;;;;21.60;78.60;;;;;;5034158;28;19917;-68
2022/10/12 12:36:44;;;;;;;;;;;21.50;78.20;;;;;;5040120;28;20446;-68
2022/10/12 12:39:19;;;;;;;;;;;21.20;78.40;;;;;;5034821;28;19913;-71
2022/10/12 12:41:52;;;;;;;;;;;20.90;78.80;;;;;;5018938;28;19905;-68
2022/10/12 12:44:36;;;;;;;;;;;20.70;80.20;;;;;;5033336;28;19917;-68
2022/10/12 12:47:03;;;;;;;;;;;20.40;80.00;;;;;;5030552;28;19911;-69
2022/10/12 12:49:41;;;;;;;;;;;20.10;80.60;;;;;;5034046;28;19910;-69
2022/10/12 12:52:27;;;;;;;;;;;19.80;81.70;;;;;;5034638;28;19905;-67
2022/10/12 12:54:55;;;;;;;;;;;19.80;82.90;;;;;;5032957;28;19931;-68
2022/10/12 12:57:23;;;;;;;;;;;19.80;82.70;;;;;;5034369;28;20386;-68
2022/10/12 13:00:07;;;;;;;;;;;19.80;83.20;;;;;;5034609;28;19905;-68
2022/10/12 13:02:52;;;;;;;;;;;19.70;82.70;;;;;;5034061;28;19909;-68
2022/10/12 13:05:17;;;;;;;;;;;19.60;83.50;;;;;;5033938;28;19995;-70
2022/10/12 13:08:02;;;;;;;;;;;19.60;84.50;;;;;;5034208;28;20008;-68
2022/10/12 13:10:46;;;;;;;;;;;19.60;84.80;;;;;;5029320;28;19913;-68
2022/10/12 13:13:26;;;;;;;;;;;19.40;84.90;;;;;;5034584;28;20401;-69
2022/10/12 13:15:52;;;;;;;;;;;19.20;84.50;;;;;;5034626;28;19975;-68
2022/10/12 13:18:43;;;;;;;;;;;19.30;85.60;;;;;;5034206;28;19948;-69
2022/10/12 13:21:12;;;;;;;;;;;19.30;85.40;;;;;;5032823;28;19958;-68
2022/10/12 13:23:39;;;;;;;;;;;19.30;85.00;;;;;;5033064;28;20008;-70
2022/10/12 13:26:06;;;;;;;;;;;19.30;84.40;;;;;;5031907;28;19958;-69
2022/10/12 13:28:34;;;;;;;;;;;19.30;84.40;;;;;;5032744;28;20355;-69
2022/10/12 13:31:05;;;;;;;;;;;19.30;85.00;;;;;;5033533;28;20259;-68
2022/10/12 13:33:32;;;;;;;;;;;19.20;85.90;;;;;;5033365;28;19912;-68
2022/10/12 13:36:04;;;;;;;;;;;19.40;85.80;;;;;;5033657;28;20625;-67
2022/10/12 13:38:29;;;;;;;;;;;19.60;85.40;;;;;;5033618;28;19913;-67
2022/10/12 13:41:04;;;;;;;;;;;19.50;86.40;;;;;;5033850;28;19912;-68
2022/10/12 13:43:44;;;;;;;;;;;19.60;86.20;;;;;;5033387;28;20267;-68
2022/10/12 13:46:11;;;;;;;;;;;19.60;86.20;;;;;;5033372;28;20007;-69
2022/10/12 13:48:37;;;;;;;;;;;19.40;86.50;;;;;;5028184;28;19909;-69
2022/10/12 13:51:04;;;;;;;;;;;19.20;87.10;;;;;;5036447;28;20050;-67
2022/10/12 13:53:34;;;;;;;;;;;19.00;86.60;;;;;;5033308;28;19966;-70
2022/10/12 13:56:02;;;;;;;;;;;18.70;87.60;;;;;;5033530;28;20003;-69
2022/10/12 13:58:29;;;;;;;;;;;18.50;88.70;;;;;;5033641;28;20274;-69
2022/10/12 14:00:55;;;;;;;;;;;18.30;89.00;;;;;;5033690;28;19912;-70
2022/10/12 14:03:25;;;;;;;;;;;18.10;89.90;;;;;;5033280;28;19905;-69
2022/10/12 14:05:52;;;;;;;;;;;17.90;90.30;;;;;;5036541;28;19927;-69
2022/10/12 14:08:22;;;;;;;;;;;17.80;90.50;;;;;;5053422;28;19905;-70
2022/10/12 14:10:48;;;;;;;;;;;17.80;90.60;;;;;;5053417;28;19909;-68
2022/10/12 14:13:16;;;;;;;;;;;17.70;91.00;;;;;;5052953;28;19956;-70
2022/10/12 14:15:42;;;;;;;;;;;17.70;91.00;;;;;;5052909;28;19920;-69
2022/10/12 14:18:26;;;;;;;;;;;17.60;91.40;;;;;;5043416;28;19935;-68
2022/10/12 14:21:03;;;;;;;;;;;17.60;91.40;;;;;;5022393;28;20359;-68
2022/10/12 14:23:28;;;;;;;;;;;17.60;91.70;;;;;;5030697;28;19909;-68
2022/10/12 14:25:54;;;;;;;;;;;17.60;91.90;;;;;;5031696;28;19992;-68
2022/10/12 14:28:25;;;;;;;;;;;17.60;91.90;;;;;;5032070;28;19916;-68
2022/10/12 14:30:52;;;;;;;;;;;17.50;92.00;;;;;;5033109;28;19905;-68